Česky Dansk Deutsch English Español Suomi Français Magyar Italiano Nederlands norsk Polski Português svenska Türkçe

 

Het Weer

Kostanay (Kazakhstan)

19:00, 13 augustus 2016 (GMT)

NWNNE
WE
SWSSE
Home            
Kostanay Chelyabinsk-Balandino Ekaterinburg Ufa Aktjubinsk Astana Orenburg / Tsentralny Omsk Perm'/Bolshoe Savino Aralskoe More Karaganda Uralsk Samara Hanty-Mansijsk Kzyl-Orda Kazan' Ulyanovsk Surgut Ust'- Kulom Nizhnevartovsk Saratov / Tsentralny Syktyvkar Nukus / Karakalpakstan

Om een weerknop op uw website of weblog te plaatsen, copieer onderstaande code en plak die in uw pagina. In het eerste vakje staat HTML-code, in het tweede vakje UBB-code.


Add to Google

Details

Wind speed:3 bf, 7.8 kn, 4 m/s, 8.9 miles/h, 14.4 km/h
Wind direction:E, 100°
Visibility:Greater than 10000 m, 10 km, 32800 ft, 6.2 miles
Clouds:CAVOC
Temperature:20°C, 68°F
Dew-point:12°C, 54°F
Atmospheric pressure:1022 hPa, 766.6 mmHg, 30.18 inHg, 1.009 atm
Relative humidity:60.0 %
METAR:UAUU 131900Z 10004MPS CAVOK 20/12 Q1022 R33/CLRD70 NOSIG RMK QFE751/1001

Snelkoppelingen

Actuele weersinformatie van de hele wereld. Voeg locaties toe met het plus (+) symbool. Deze snelkoppelingen kunnen worden toegevoegd aan Google.

Lid van de Technetium groep

website free tracking
StatCounter NetStat W3C Validator

18-08-2019 05:06:58
astro.technetium.be money.technetium.be phote.technetium.be tafeltennistafel.technetium.be www.ligfiets.net